Time;durP1;ratioP1;P1;durP2;ratioP2;P2;SDS_P1;SDS_P2;PMS_P1;PMS_P2;Temp;Humidity;BMP_temperature;BMP_pressure;BME280_temperature;BME280_humidity;BME280_pressure;Samples;Min_cycle;Max_cycle;Signal;HPM_P1;HPM_P2
2022/04/19 00:00:34;;;;;;;12.10;5.50;;;12.70;49.00;;;;;;4754230;30;20413;-85
2022/04/19 00:03:02;;;;;;;7.95;5.07;;;12.60;48.90;;;;;;4742590;30;20048;-85
2022/04/19 00:05:28;;;;;;;8.02;5.55;;;12.60;48.90;;;;;;4744541;30;20173;-86
2022/04/19 00:07:54;;;;;;;8.40;5.70;;;12.60;48.90;;;;;;4770072;30;20032;-85
2022/04/19 00:10:19;;;;;;;7.68;5.22;;;12.50;48.90;;;;;;4756681;30;20055;-85
2022/04/19 00:12:47;;;;;;;8.95;5.60;;;12.50;48.90;;;;;;4763896;30;20442;-85
2022/04/19 00:15:13;;;;;;;8.02;5.00;;;12.50;48.90;;;;;;4761891;30;20052;-85
2022/04/19 00:17:38;;;;;;;9.35;5.90;;;12.50;49.00;;;;;;4738413;30;20097;-84
2022/04/19 00:20:04;;;;;;;10.85;6.50;;;12.40;49.30;;;;;;4754203;30;20060;-85
2022/04/19 00:22:30;;;;;;;8.18;5.68;;;12.40;48.90;;;;;;4753135;30;20424;-84
2022/04/19 00:24:56;;;;;;;9.55;5.65;;;12.40;48.90;;;;;;4737691;30;20055;-85
2022/04/19 00:27:22;;;;;;;10.10;6.55;;;12.30;49.00;;;;;;4753529;30;20052;-85
2022/04/19 00:29:49;;;;;;;8.95;5.90;;;12.40;49.10;;;;;;4752369;30;20044;-86
2022/04/19 00:32:15;;;;;;;7.63;5.38;;;12.30;49.50;;;;;;4737151;30;20063;-84
2022/04/19 00:34:41;;;;;;;7.50;5.43;;;12.30;49.20;;;;;;4736824;30;20060;-85
2022/04/19 00:37:07;;;;;;;8.50;6.25;;;12.30;49.20;;;;;;4752275;30;20109;-85
2022/04/19 00:39:33;;;;;;;9.82;6.10;;;12.20;49.20;;;;;;4753074;30;20559;-85
2022/04/19 00:42:00;;;;;;;6.90;5.53;;;12.20;49.20;;;;;;4753382;30;20044;-85
2022/04/19 00:44:25;;;;;;;9.15;6.85;;;12.20;49.30;;;;;;4752618;30;20044;-85
2022/04/19 00:46:51;;;;;;;9.90;7.05;;;12.10;49.30;;;;;;4736986;30;20048;-84
2022/04/19 00:49:17;;;;;;;9.38;6.78;;;12.10;49.30;;;;;;4737600;30;20140;-85
2022/04/19 00:51:44;;;;;;;9.30;6.07;;;12.00;49.30;;;;;;4753281;30;20045;-84
2022/04/19 00:54:11;;;;;;;8.02;5.70;;;12.00;49.40;;;;;;4750004;30;20109;-85
2022/04/19 00:56:38;;;;;;;7.95;5.60;;;12.00;49.50;;;;;;4752529;30;20081;-85
2022/04/19 00:59:04;;;;;;;7.93;6.00;;;11.90;49.40;;;;;;4753439;30;20048;-85
2022/04/19 01:01:30;;;;;;;9.70;6.97;;;11.90;49.50;;;;;;4752787;30;20104;-84
2022/04/19 01:03:57;;;;;;;9.30;6.00;;;11.90;49.50;;;;;;4751363;30;20489;-85
2022/04/19 01:06:22;;;;;;;8.63;6.05;;;11.90;49.50;;;;;;4753333;30;20060;-84
2022/04/19 01:08:48;;;;;;;8.25;6.20;;;11.90;49.60;;;;;;4752098;30;20397;-84
2022/04/19 01:14:02;;;;;;;9.30;6.50;;;11.80;49.60;;;;;;4736061;30;20477;-85
2022/04/19 01:16:28;;;;;;;10.25;7.10;;;11.80;49.60;;;;;;4753024;30;20568;-85
2022/04/19 01:18:55;;;;;;;9.02;6.38;;;11.70;49.70;;;;;;4752408;30;20040;-86
2022/04/19 01:21:21;;;;;;;9.50;6.43;;;11.70;49.80;;;;;;4752347;30;20044;-84
2022/04/19 01:23:46;;;;;;;10.18;6.82;;;11.60;50.10;;;;;;4750861;30;20088;-85
2022/04/19 01:26:12;;;;;;;9.77;6.47;;;11.60;49.80;;;;;;4751646;30;20052;-85
2022/04/19 01:28:38;;;;;;;9.50;7.10;;;11.60;49.90;;;;;;4736596;30;20073;-85
2022/04/19 01:31:04;;;;;;;9.50;6.63;;;11.60;49.90;;;;;;4738084;30;20056;-84
2022/04/19 01:33:30;;;;;;;7.10;6.00;;;11.60;50.00;;;;;;4757749;30;20070;-85
2022/04/19 01:35:56;;;;;;;8.90;7.00;;;11.50;50.00;;;;;;4757987;30;20056;-84
2022/04/19 01:38:21;;;;;;;11.98;7.22;;;11.50;50.10;;;;;;4742512;30;20102;-86
2022/04/19 01:40:47;;;;;;;9.30;6.70;;;11.50;50.10;;;;;;4757730;30;20079;-85
2022/04/19 01:43:13;;;;;;;9.43;6.75;;;11.50;50.20;;;;;;4758407;30;20054;-85
2022/04/19 01:45:40;;;;;;;9.05;6.85;;;11.50;50.20;;;;;;4742360;30;20048;-84
2022/04/19 01:48:07;;;;;;;9.40;6.10;;;11.40;50.30;;;;;;4742415;30;20052;-85
2022/04/19 01:50:32;;;;;;;10.15;7.07;;;11.30;50.30;;;;;;4742443;30;20131;-85
2022/04/19 01:53:02;;;;;;;8.48;6.20;;;11.30;50.30;;;;;;4757397;30;20111;-85
2022/04/19 01:55:28;;;;;;;8.88;5.90;;;11.30;50.40;;;;;;4758079;30;20054;-85
2022/04/19 01:57:57;;;;;;;9.70;6.30;;;11.20;50.40;;;;;;4758589;30;20119;-85
2022/04/19 02:00:24;;;;;;;8.90;6.72;;;11.20;50.50;;;;;;4757145;30;20064;-85
2022/04/19 02:02:49;;;;;;;8.73;6.00;;;11.20;50.50;;;;;;4741476;30;20052;-84
2022/04/19 02:05:16;;;;;;;8.23;6.28;;;11.20;50.60;;;;;;4741564;30;20135;-84
2022/04/19 02:07:43;;;;;;;8.48;6.38;;;11.10;50.60;;;;;;4757917;30;20048;-84
2022/04/19 02:10:11;;;;;;;9.38;6.25;;;11.10;50.60;;;;;;4758250;30;20524;-85
2022/04/19 02:12:38;;;;;;;10.00;6.43;;;11.10;50.80;;;;;;4741908;30;20040;-85
2022/04/19 02:15:05;;;;;;;8.15;5.82;;;11.10;50.80;;;;;;4756959;30;20485;-84
2022/04/19 02:17:31;;;;;;;7.63;5.90;;;11.00;50.80;;;;;;4742357;30;20101;-85
2022/04/19 02:20:04;;;;;;;9.00;5.60;;;11.00;50.90;;;;;;4757702;30;20048;-84
2022/04/19 02:22:31;;;;;;;10.57;7.22;;;11.00;50.90;;;;;;4757553;30;20056;-85
2022/04/19 02:24:58;;;;;;;9.15;6.07;;;10.90;50.90;;;;;;4741251;30;20128;-84
2022/04/19 02:27:28;;;;;;;8.27;6.13;;;11.00;51.00;;;;;;4742447;30;20044;-84
2022/04/19 02:29:57;;;;;;;9.50;6.20;;;10.90;51.00;;;;;;4756271;30;20047;-84
2022/04/19 02:32:23;;;;;;;6.88;5.70;;;10.90;51.00;;;;;;4756543;30;20499;-85
2022/04/19 02:34:52;;;;;;;10.82;7.60;;;10.80;51.00;;;;;;4757145;30;20052;-84
2022/04/19 02:37:18;;;;;;;9.60;7.00;;;10.80;51.10;;;;;;4741691;30;20068;-84
2022/04/19 02:39:46;;;;;;;8.38;6.03;;;10.80;51.50;;;;;;4741376;30;20044;-83
2022/04/19 02:42:12;;;;;;;8.95;6.85;;;10.80;51.20;;;;;;4740796;30;20064;-84
2022/04/19 02:44:38;;;;;;;9.13;6.25;;;10.70;51.20;;;;;;4753794;30;20056;-85
2022/04/19 02:47:04;;;;;;;11.25;6.88;;;10.70;51.20;;;;;;4738435;30;20059;-84
2022/04/19 02:49:30;;;;;;;13.50;7.68;;;10.70;51.20;;;;;;4753979;30;20056;-85
2022/04/19 02:51:55;;;;;;;8.77;7.03;;;10.60;51.30;;;;;;4755089;30;20404;-85
2022/04/19 02:54:21;;;;;;;8.60;6.28;;;10.60;51.30;;;;;;4754999;30;20413;-85
2022/04/19 02:56:50;;;;;;;10.07;7.18;;;10.60;51.40;;;;;;4754803;30;20088;-85
2022/04/19 02:59:15;;;;;;;11.52;7.57;;;10.60;51.40;;;;;;4754696;30;20040;-85
2022/04/19 03:01:42;;;;;;;9.30;6.43;;;10.60;51.50;;;;;;4753655;30;20109;-85
2022/04/19 03:04:07;;;;;;;11.43;6.90;;;10.60;51.50;;;;;;4738968;30;20060;-85
2022/04/19 03:06:33;;;;;;;11.35;7.72;;;10.50;51.50;;;;;;4739227;30;20078;-85
2022/04/19 03:08:59;;;;;;;9.90;7.65;;;10.50;51.50;;;;;;4754191;30;20047;-84
2022/04/19 03:11:25;;;;;;;9.55;6.82;;;10.40;51.50;;;;;;4754339;30;20090;-85
2022/04/19 03:13:50;;;;;;;10.48;6.38;;;10.40;51.50;;;;;;4753454;30;20052;-83
2022/04/19 03:16:16;;;;;;;9.75;6.75;;;10.40;51.50;;;;;;4754409;30;20477;-84
2022/04/19 03:18:42;;;;;;;10.13;6.95;;;10.40;51.60;;;;;;4738779;30;20077;-84
2022/04/19 03:21:12;;;;;;;9.40;6.22;;;10.30;51.60;;;;;;4753819;30;20044;-84
2022/04/19 03:29:08;;;;;;;10.00;6.43;;;10.30;51.80;;;;;;4738471;30;20145;-84
2022/04/19 03:31:34;;;;;;;11.43;7.47;;;10.20;51.70;;;;;;4737984;30;20137;-84
2022/04/19 03:34:01;;;;;;;11.77;7.13;;;10.20;51.80;;;;;;4738200;30;20086;-84
2022/04/19 03:36:27;;;;;;;9.20;6.95;;;10.20;51.80;;;;;;4738360;30;20080;-84
2022/04/19 03:38:53;;;;;;;10.43;7.03;;;10.20;51.80;;;;;;4738875;30;20080;-84
2022/04/19 03:41:19;;;;;;;10.05;7.65;;;10.10;51.80;;;;;;4753374;30;20070;-84
2022/04/19 03:43:44;;;;;;;9.30;7.50;;;10.10;52.20;;;;;;4754752;30;20477;-84
2022/04/19 03:46:10;;;;;;;13.00;7.53;;;10.10;51.90;;;;;;4739032;30;20052;-85
2022/04/19 03:48:36;;;;;;;9.38;7.40;;;10.30;52.00;;;;;;4746822;30;20113;-83
2022/04/19 03:51:03;;;;;;;10.02;6.80;;;10.10;51.90;;;;;;4726372;30;20443;-84
2022/04/19 03:53:30;;;;;;;10.80;8.05;;;10.10;52.00;;;;;;4737997;30;20524;-84
2022/04/19 03:55:55;;;;;;;11.95;7.95;;;10.00;51.90;;;;;;4753179;30;20071;-83
2022/04/19 03:58:21;;;;;;;13.27;9.70;;;10.00;52.00;;;;;;4752986;30;20048;-83
2022/04/19 04:00:46;;;;;;;12.88;9.60;;;9.90;52.00;;;;;;4753365;30;20044;-83
2022/04/19 04:03:12;;;;;;;11.95;8.77;;;10.00;51.90;;;;;;4753313;30;20047;-84
2022/04/19 04:05:38;;;;;;;13.75;10.25;;;10.00;52.00;;;;;;4753710;30;20049;-84
2022/04/19 04:08:04;;;;;;;13.20;10.05;;;10.00;52.00;;;;;;4738159;30;20173;-84
2022/04/19 04:10:30;;;;;;;11.65;8.90;;;9.90;52.00;;;;;;4753667;30;20044;-84
2022/04/19 04:12:58;;;;;;;14.70;9.63;;;9.90;52.10;;;;;;4731813;30;20547;-84
2022/04/19 04:15:24;;;;;;;13.63;9.07;;;9.90;52.10;;;;;;4753021;30;20052;-84
2022/04/19 04:17:49;;;;;;;12.90;9.43;;;9.80;52.10;;;;;;4753487;30;20084;-84
2022/04/19 04:20:15;;;;;;;13.75;9.13;;;9.80;52.20;;;;;;4737870;30;20079;-83
2022/04/19 04:22:40;;;;;;;14.38;11.57;;;9.80;52.20;;;;;;4753423;30;20486;-84
2022/04/19 04:25:06;;;;;;;15.45;10.60;;;9.80;52.30;;;;;;4753475;30;20521;-84
2022/04/19 04:27:32;;;;;;;15.60;10.25;;;9.80;52.20;;;;;;4748086;30;20052;-84
2022/04/19 04:29:58;;;;;;;13.32;10.57;;;9.70;52.20;;;;;;4720548;30;20095;-84
2022/04/19 04:32:23;;;;;;;14.77;10.48;;;9.70;52.30;;;;;;4733870;30;20068;-84
2022/04/19 04:34:49;;;;;;;15.00;10.68;;;9.70;52.20;;;;;;4753588;30;20436;-85
2022/04/19 04:37:14;;;;;;;14.82;9.93;;;9.60;52.10;;;;;;4737063;30;20056;-84
2022/04/19 04:39:40;;;;;;;14.48;10.20;;;9.60;52.30;;;;;;4753206;30;20056;-84
2022/04/19 04:42:06;;;;;;;14.07;9.95;;;9.60;52.30;;;;;;4752319;30;20040;-84
2022/04/19 04:44:32;;;;;;;12.32;9.35;;;9.50;52.40;;;;;;4737268;30;20095;-85
2022/04/19 04:49:41;;;;;;;13.45;9.73;;;9.50;52.60;;;;;;4750965;30;20075;-86
2022/04/19 04:52:08;;;;;;;13.35;9.45;;;9.50;52.50;;;;;;4753136;30;20485;-85
2022/04/19 04:54:35;;;;;;;11.77;9.52;;;9.40;52.40;;;;;;4752959;30;20109;-85
2022/04/19 04:57:02;;;;;;;13.93;9.88;;;9.40;52.60;;;;;;4751863;30;20048;-84
2022/04/19 04:59:29;;;;;;;18.13;12.65;;;9.30;52.80;;;;;;4736618;30;20048;-84
2022/04/19 05:01:55;;;;;;;19.45;12.93;;;9.30;53.40;;;;;;4737488;30;20074;-85
2022/04/19 05:04:21;;;;;;;15.35;11.98;;;9.30;53.30;;;;;;4749552;30;20048;-85
2022/04/19 05:06:46;;;;;;;17.02;12.85;;;9.30;53.50;;;;;;4736841;30;20048;-85
2022/04/19 05:09:12;;;;;;;17.42;12.38;;;9.30;53.60;;;;;;4736786;30;20058;-85
2022/04/19 05:11:39;;;;;;;17.52;11.82;;;9.40;53.70;;;;;;4752670;30;20051;-86
2022/04/19 05:14:05;;;;;;;17.23;12.23;;;9.50;53.70;;;;;;4732914;30;20132;-85
2022/04/19 05:16:30;;;;;;;17.05;12.13;;;9.50;53.50;;;;;;4753090;30;20060;-86
2022/04/19 05:18:56;;;;;;;18.58;12.23;;;9.60;53.30;;;;;;4753059;30;20397;-86
2022/04/19 05:21:22;;;;;;;16.92;12.13;;;9.70;53.30;;;;;;4754775;30;20040;-85
2022/04/19 05:23:48;;;;;;;20.02;14.07;;;9.70;53.30;;;;;;4739400;30;20383;-86
2022/04/19 05:26:13;;;;;;;16.98;12.38;;;9.80;53.30;;;;;;4755688;30;20147;-86
2022/04/19 05:28:39;;;;;;;16.05;11.63;;;9.80;53.40;;;;;;4747858;30;20075;-85
2022/04/19 05:31:05;;;;;;;16.88;12.65;;;9.90;53.30;;;;;;4748951;30;20090;-86
2022/04/19 05:33:30;;;;;;;20.38;12.93;;;9.90;53.30;;;;;;4742546;30;20468;-86
2022/04/19 05:35:56;;;;;;;17.98;13.30;;;10.00;53.30;;;;;;4719545;30;20057;-86
2022/04/19 05:38:22;;;;;;;17.67;12.68;;;10.00;53.20;;;;;;4752004;30;20123;-87
2022/04/19 05:40:48;;;;;;;16.90;12.85;;;10.10;53.40;;;;;;4736880;30;20168;-87
2022/04/19 05:43:13;;;;;;;17.25;12.50;;;10.10;53.40;;;;;;4752170;30;20048;-87
2022/04/19 05:45:39;;;;;;;17.17;12.20;;;10.20;53.40;;;;;;4753257;30;20048;-87
2022/04/19 05:48:06;;;;;;;18.30;11.50;;;10.30;53.40;;;;;;4737359;30;20060;-87
2022/04/19 05:50:31;;;;;;;18.35;12.38;;;10.30;53.40;;;;;;4752729;30;20048;-93
2022/04/19 05:52:57;;;;;;;16.25;11.50;;;10.40;53.30;;;;;;4737039;30;20532;-88
2022/04/19 05:55:23;;;;;;;17.50;11.73;;;10.60;53.20;;;;;;4754238;30;20056;-87
2022/04/19 05:57:49;;;;;;;18.15;11.57;;;10.70;53.20;;;;;;4735963;30;20052;-86
2022/04/19 06:00:15;;;;;;;16.08;11.02;;;11.00;53.20;;;;;;4753008;30;20139;-86
2022/04/19 06:05:25;;;;;;;16.92;10.68;;;11.70;52.30;;;;;;4732927;30;20103;-87
2022/04/19 06:07:52;;;;;;;15.27;10.73;;;12.10;52.30;;;;;;4736477;30;20080;-86
2022/04/19 06:10:18;;;;;;;14.70;10.80;;;12.50;51.90;;;;;;4754001;30;20545;-86
2022/04/19 06:12:44;;;;;;;14.27;10.27;;;13.10;51.40;;;;;;4750948;30;20401;-84
2022/04/19 06:15:11;;;;;;;14.05;9.82;;;13.50;50.40;;;;;;4736280;30;20044;-86
2022/04/19 06:17:38;;;;;;;17.50;11.07;;;13.90;49.40;;;;;;4754495;30;20548;-88
2022/04/19 06:20:44;;;;;;;13.98;10.60;;;14.20;47.80;;;;;;4756750;30;20097;-88
2022/04/19 06:23:11;;;;;;;14.23;10.23;;;14.20;46.70;;;;;;4740905;30;20493;-88
2022/04/19 06:25:37;;;;;;;12.88;10.02;;;14.20;46.90;;;;;;4756826;30;20512;-88
2022/04/19 06:28:03;;;;;;;15.38;10.40;;;14.00;47.10;;;;;;4757988;30;20048;-90
2022/04/19 06:30:29;;;;;;;11.82;9.45;;;14.10;47.60;;;;;;4740953;30;20048;-90
2022/04/19 06:32:54;;;;;;;11.88;8.95;;;14.20;47.20;;;;;;4738353;30;20520;-89
2022/04/19 06:36:00;;;;;;;13.82;10.43;;;14.50;47.10;;;;;;4737525;30;20053;-91
2022/04/19 06:38:25;;;;;;;12.73;9.93;;;14.80;46.20;;;;;;4737521;30;20088;-89
2022/04/19 06:40:51;;;;;;;13.90;9.68;;;15.00;45.50;;;;;;4737394;30;20099;-89
2022/04/19 06:43:17;;;;;;;11.45;9.05;;;15.30;45.40;;;;;;4752215;30;20430;-90
2022/04/19 06:45:43;;;;;;;13.93;10.05;;;15.50;45.20;;;;;;4738800;30;20573;-90
2022/04/19 06:48:09;;;;;;;13.77;9.90;;;15.50;44.40;;;;;;4723458;30;20067;-91
2022/04/19 06:50:53;;;;;;;12.05;9.38;;;15.70;44.40;;;;;;4738157;30;20049;-91
2022/04/19 06:53:19;;;;;;;;;;;15.80;44.00;;;;;;4739520;30;20538;-91
2022/04/19 06:55:45;;;;;;;13.63;10.23;;;15.90;44.00;;;;;;4739060;30;20021;-91
2022/04/19 06:58:10;;;;;;;12.10;8.80;;;16.00;44.10;;;;;;4739929;30;20478;-91
2022/04/19 07:00:36;;;;;;;12.40;9.52;;;16.20;43.50;;;;;;4738365;30;20049;-92
2022/04/19 07:03:01;;;;;;;11.25;8.00;;;16.20;42.70;;;;;;4723408;30;20541;-94
2022/04/19 07:05:27;;;;;;;10.43;8.38;;;16.20;42.70;;;;;;4738860;30;20099;-91
2022/04/19 07:07:53;;;;;;;11.40;8.88;;;16.20;42.30;;;;;;4737449;30;20076;-92
2022/04/19 07:10:19;;;;;;;10.70;9.13;;;16.10;42.20;;;;;;4738562;30;20052;-91
2022/04/19 07:12:44;;;;;;;11.10;8.65;;;16.10;42.80;;;;;;4738791;30;20086;-91
2022/04/19 07:15:10;;;;;;;10.60;7.53;;;16.00;43.20;;;;;;4738550;30;20048;-91
2022/04/19 07:17:40;;;;;;;13.00;9.15;;;16.00;43.80;;;;;;4741480;30;20079;-87
2022/04/19 07:27:28;;;;;;;10.65;8.48;;;16.10;44.10;;;;;;4741765;30;20070;-91
2022/04/19 07:29:53;;;;;;;10.93;8.80;;;16.00;44.30;;;;;;4748943;30;20045;-94
2022/04/19 07:32:19;;;;;;;11.20;7.90;;;16.00;44.10;;;;;;4759006;30;20053;-87
2022/04/19 07:34:44;;;;;;;11.68;8.57;;;15.90;44.10;;;;;;4753193;30;20114;-95
2022/04/19 07:37:11;;;;;;;9.98;7.78;;;16.00;44.20;;;;;;4741577;30;20118;-92
2022/04/19 07:39:37;;;;;;;9.43;7.75;;;16.00;43.90;;;;;;4738661;30;20052;-91
2022/04/19 07:42:02;;;;;;;8.32;7.30;;;15.90;44.10;;;;;;4738569;30;20060;-93
2022/04/19 07:44:29;;;;;;;8.93;7.65;;;16.00;45.10;;;;;;4738332;30;20060;-91
2022/04/19 07:46:55;;;;;;;9.80;7.60;;;16.10;44.90;;;;;;4737899;30;20052;-92
2022/04/19 07:49:20;;;;;;;10.70;7.78;;;16.30;45.40;;;;;;4739355;30;20055;-91
2022/04/19 07:51:46;;;;;;;9.43;6.70;;;16.40;45.00;;;;;;4738584;30;20048;-92
2022/04/19 07:54:11;;;;;;;9.80;7.28;;;16.50;45.30;;;;;;4738497;30;20107;-92
2022/04/19 07:56:37;;;;;;;9.88;7.82;;;16.50;44.30;;;;;;4739795;30;20053;-91
2022/04/19 07:59:03;;;;;;;11.70;8.75;;;16.50;44.60;;;;;;4741758;30;20049;-92
2022/04/19 08:01:28;;;;;;;11.15;7.47;;;16.50;44.60;;;;;;4738671;30;20474;-92
2022/04/19 08:03:54;;;;;;;9.95;7.32;;;16.60;44.40;;;;;;4739039;30;20127;-93
2022/04/19 08:06:20;;;;;;;11.20;7.45;;;16.60;44.50;;;;;;4739178;30;20132;-95
2022/04/19 08:08:45;;;;;;;9.70;7.55;;;16.70;44.20;;;;;;4737593;30;20045;-94
2022/04/19 08:11:11;;;;;;;9.05;7.38;;;16.80;44.10;;;;;;4737821;30;20056;-95
2022/04/19 08:13:37;;;;;;;10.68;8.10;;;16.80;44.50;;;;;;4745143;30;20070;-95
2022/04/19 08:16:02;;;;;;;11.20;7.50;;;16.90;44.70;;;;;;4744662;30;20048;-92
2022/04/19 08:18:28;;;;;;;11.43;7.15;;;16.90;44.10;;;;;;4751740;30;20098;-96
2022/04/19 08:20:54;;;;;;;9.57;6.95;;;17.00;42.80;;;;;;4748362;30;20122;-94
2022/04/19 08:23:20;;;;;;;11.05;6.93;;;17.00;42.60;;;;;;4784580;24;20063;-94
2022/04/19 08:25:46;;;;;;;10.23;6.47;;;16.90;42.60;;;;;;4750165;30;20048;-96
2022/04/19 08:28:11;;;;;;;7.38;5.97;;;16.90;42.90;;;;;;4742398;30;20056;-93
2022/04/19 08:30:37;;;;;;;8.10;5.60;;;17.00;42.60;;;;;;4754060;30;20059;-93
2022/04/19 08:33:03;;;;;;;8.73;5.63;;;17.10;42.90;;;;;;4759064;30;20111;-92
2022/04/19 08:35:29;;;;;;;8.50;6.13;;;17.10;42.30;;;;;;4755797;30;20055;-92
2022/04/19 08:37:55;;;;;;;8.38;5.88;;;17.20;42.30;;;;;;4760559;30;20130;-93
2022/04/19 08:40:20;;;;;;;9.05;5.70;;;17.20;41.80;;;;;;4758271;30;20044;-92
2022/04/19 08:42:47;;;;;;;8.85;5.57;;;17.30;41.80;;;;;;4759382;30;20409;-92
2022/04/19 08:45:15;;;;;;;7.38;4.82;;;17.30;42.30;;;;;;4759470;30;20086;-94
2022/04/19 08:47:43;;;;;;;8.18;5.43;;;17.30;43.00;;;;;;4759103;30;20056;-91
2022/04/19 08:50:12;;;;;;;8.43;5.35;;;17.40;42.60;;;;;;4759905;30;20067;-91
2022/04/19 08:52:38;;;;;;;13.82;5.32;;;17.40;42.10;;;;;;4761563;30;20056;-96
2022/04/19 08:57:49;;;;;;;7.63;5.03;;;17.50;42.10;;;;;;4760579;30;20060;-94
2022/04/19 09:00:15;;;;;;;7.78;4.82;;;17.50;41.90;;;;;;4760402;30;20068;-95
2022/04/19 09:02:41;;;;;;;7.03;4.18;;;17.50;42.20;;;;;;4744381;30;20056;-93
2022/04/19 09:05:18;;;;;;;9.57;4.60;;;17.40;42.30;;;;;;4746168;30;20072;-94
2022/04/19 09:07:45;;;;;;;6.53;4.30;;;17.50;41.70;;;;;;4761320;30;20083;-94
2022/04/19 09:10:16;;;;;;;9.65;5.15;;;17.50;41.20;;;;;;4759670;30;20044;-93
2022/04/19 09:13:04;;;;;;;7.38;4.82;;;17.60;40.50;;;;;;4763880;30;20607;-93
2022/04/19 09:15:40;;;;;;;6.70;4.63;;;17.40;40.60;;;;;;4758721;30;20048;-95
2022/04/19 09:18:32;;;;;;;6.85;4.78;;;17.40;41.20;;;;;;4761451;30;20052;-93
2022/04/19 09:21:16;;;;;;;7.97;4.85;;;17.50;40.80;;;;;;4759515;30;20052;-94
2022/04/19 09:23:53;;;;;;;8.45;5.18;;;17.50;41.10;;;;;;4755766;30;20091;-91
2022/04/19 09:26:19;;;;;;;7.35;5.10;;;17.60;42.20;;;;;;4761514;30;20056;-95
2022/04/19 09:28:44;;;;;;;7.10;5.43;;;17.60;41.70;;;;;;4776919;30;20059;-92
2022/04/19 09:31:13;;;;;;;8.77;4.90;;;17.60;40.90;;;;;;4776424;30;20054;-95
2022/04/19 09:33:39;;;;;;;7.78;4.32;;;17.60;40.90;;;;;;4778007;30;20044;-91
2022/04/19 09:36:05;;;;;;;6.95;4.75;;;17.60;41.10;;;;;;4778383;30;20476;-92
2022/04/19 09:38:37;;;;;;;6.95;3.85;;;17.70;41.60;;;;;;4779097;30;20151;-94
2022/04/19 09:41:04;;;;;;;6.07;4.55;;;17.80;41.40;;;;;;4788994;24;20112;-95
2022/04/19 09:43:30;;;;;;;7.03;4.70;;;17.90;42.30;;;;;;4797519;30;20063;-93
2022/04/19 09:45:58;;;;;;;5.65;4.15;;;18.00;41.60;;;;;;4795464;30;20438;-89
2022/04/19 09:48:28;;;;;;;7.05;4.45;;;18.10;41.80;;;;;;4795015;30;20063;-94
2022/04/19 09:51:14;;;;;;;6.05;4.05;;;18.20;41.40;;;;;;4817468;24;20059;-93
2022/04/19 09:53:42;;;;;;;6.55;4.70;;;18.20;40.00;;;;;;4799044;29;20044;-94
2022/04/19 09:56:12;;;;;;;6.55;4.07;;;18.20;41.10;;;;;;4802678;30;20059;-96
2022/04/19 09:58:39;;;;;;;6.20;3.90;;;18.20;40.70;;;;;;4801662;30;20061;-95
2022/04/19 10:01:05;;;;;;;5.38;4.30;;;18.20;40.50;;;;;;4792181;30;20077;-94
2022/04/19 10:09:04;;;;;;;4.95;3.65;;;18.30;41.70;;;;;;4778128;30;20389;-94
2022/04/19 10:11:30;;;;;;;5.93;3.33;;;18.30;39.90;;;;;;4780518;30;20493;-96
2022/04/19 10:13:56;;;;;;;6.05;3.78;;;18.30;39.80;;;;;;4786180;30;20053;-96
2022/04/19 10:16:23;;;;;;;5.68;3.83;;;18.30;40.60;;;;;;4797190;30;20442;-95
2022/04/19 10:18:49;;;;;;;4.38;3.05;;;18.20;39.90;;;;;;4789314;30;20059;-94
2022/04/19 10:21:22;;;;;;;4.72;3.10;;;18.30;39.60;;;;;;4780116;30;20048;-91
2022/04/19 10:23:48;;;;;;;5.35;3.15;;;18.20;39.50;;;;;;4779730;30;20052;-94
2022/04/19 10:26:18;;;;;;;4.57;2.63;;;18.10;39.40;;;;;;4783157;30;20102;-93
2022/04/19 10:28:46;;;;;;;3.88;2.63;;;18.20;39.30;;;;;;4781389;30;20125;-94
2022/04/19 10:31:13;;;;;;;4.60;2.45;;;18.20;40.00;;;;;;4782462;30;20473;-93
2022/04/19 10:33:39;;;;;;;3.85;2.10;;;18.30;38.50;;;;;;4781680;30;20130;-93
2022/04/19 10:36:23;;;;;;;4.10;2.10;;;18.40;38.00;;;;;;4786629;30;20090;-93
2022/04/19 10:39:14;;;;;;;2.85;1.83;;;18.40;35.70;;;;;;4809236;30;20075;-93
2022/04/19 10:41:53;;;;;;;3.53;2.22;;;18.40;34.30;;;;;;4778463;30;20052;-92
2022/04/19 10:44:23;;;;;;;4.00;1.67;;;18.30;33.40;;;;;;4780371;30;20086;-92
2022/04/19 10:47:13;;;;;;;1.92;1.35;;;18.20;33.20;;;;;;4783109;30;20066;-94
2022/04/19 10:50:05;;;;;;;5.82;2.05;;;18.30;32.40;;;;;;4760583;30;20057;-96
2022/04/19 10:52:36;;;;;;;3.80;1.70;;;18.30;32.80;;;;;;4775128;30;20028;-92
2022/04/19 10:55:11;;;;;;;4.57;1.73;;;18.30;33.10;;;;;;4757651;30;20060;-93
2022/04/19 11:00:54;;;;;;;3.42;1.50;;;18.40;32.60;;;;;;4764734;30;20088;-91
2022/04/19 11:03:30;;;;;;;3.85;2.10;;;18.30;32.10;;;;;;4759139;30;20109;-93
2022/04/19 11:06:32;;;;;;;3.65;1.75;;;18.30;33.00;;;;;;4743491;30;20158;-92
2022/04/19 11:09:06;;;;;;;4.28;1.40;;;18.30;32.40;;;;;;4744661;30;20056;-94
2022/04/19 11:11:49;;;;;;;3.47;2.10;;;18.30;33.80;;;;;;4758035;30;20517;-93
2022/04/19 11:14:22;;;;;;;2.97;1.60;;;18.30;32.90;;;;;;4758316;30;20061;-94
2022/04/19 11:17:12;;;;;;;3.03;2.00;;;18.30;33.40;;;;;;4754589;30;20059;-94
2022/04/19 11:19:38;;;;;;;4.63;2.03;;;18.30;33.60;;;;;;4725133;30;20056;-92
2022/04/19 11:22:03;;;;;;;3.35;1.60;;;18.30;32.90;;;;;;4744590;30;20386;-93
2022/04/19 11:25:01;;;;;;;5.78;1.70;;;18.30;33.70;;;;;;4748980;30;20044;-92
2022/04/19 11:27:52;;;;;;;7.93;1.55;;;18.40;33.20;;;;;;4790629;30;20047;-94
2022/04/19 11:30:17;;;;;;;2.63;1.35;;;18.40;32.70;;;;;;4812042;30;20052;-92
2022/04/19 11:32:49;;;;;;;3.40;1.10;;;18.40;33.70;;;;;;4799170;30;20053;-94
2022/04/19 11:46:43;;;;;;;2.65;1.58;;;18.40;32.60;;;;;;4793662;30;20054;-93
2022/04/19 11:47:45;;;;;;;2.95;1.67;;;18.30;33.40;;;;;;4794415;30;20051;-94
2022/04/19 11:57:32;;;;;;;4.25;1.92;;;18.20;35.00;;;;;;4793230;30;20508;-93
2022/04/19 11:59:58;;;;;;;2.75;1.80;;;18.20;34.20;;;;;;4795755;30;20077;-94
2022/04/19 12:02:23;;;;;;;2.58;1.67;;;18.20;34.60;;;;;;4793787;30;20108;-95
2022/04/19 12:04:54;;;;;;;3.83;2.05;;;18.20;34.80;;;;;;4795020;30;20119;-94
2022/04/19 12:07:21;;;;;;;2.58;1.67;;;18.20;34.50;;;;;;4795422;30;20043;-92
2022/04/19 12:09:50;;;;;;;3.72;2.00;;;18.30;34.80;;;;;;4792299;30;20051;-95
2022/04/19 12:12:15;;;;;;;6.25;1.65;;;18.30;34.20;;;;;;4793179;30;20533;-95
2022/04/19 12:14:41;;;;;;;4.28;1.70;;;18.30;34.90;;;;;;4790532;29;20055;-93
2022/04/19 12:17:08;;;;;;;3.30;1.90;;;18.30;34.30;;;;;;4792151;30;20135;-94
2022/04/19 12:19:42;;;;;;;2.92;1.80;;;18.30;33.90;;;;;;4792828;30;20134;-94
2022/04/19 12:22:21;;;;;;;2.72;1.50;;;18.30;33.60;;;;;;4794349;30;20063;-92
2022/04/19 12:24:58;;;;;;;3.90;2.15;;;18.20;34.40;;;;;;4790197;30;20062;-93
2022/04/19 12:27:50;;;;;;;3.63;1.77;;;18.20;33.60;;;;;;4790179;30;20101;-92
2022/04/19 12:30:15;;;;;;;2.33;1.77;;;18.20;33.90;;;;;;4792140;30;20161;-91
2022/04/19 12:32:52;;;;;;;4.05;2.17;;;18.20;35.50;;;;;;4792580;30;20075;-91
2022/04/19 12:35:44;;;;;;;2.67;1.80;;;18.20;36.60;;;;;;4799736;30;20051;-94
2022/04/19 12:38:16;;;;;;;4.50;1.80;;;18.30;36.50;;;;;;4793546;29;20058;-92
2022/04/19 12:40:46;;;;;;;3.35;1.77;;;18.40;35.90;;;;;;4797018;30;20055;-92
2022/04/19 12:43:14;;;;;;;2.95;1.92;;;18.40;35.60;;;;;;4795211;30;20055;-95
2022/04/19 12:45:41;;;;;;;3.33;1.80;;;18.40;36.60;;;;;;4792533;30;20130;-94
2022/04/19 12:48:23;;;;;;;2.78;1.90;;;18.50;36.00;;;;;;4795012;30;20047;-93
2022/04/19 12:55:09;;;;;;;;;;;18.60;36.10;;;;;;4789996;30;20054;-93
2022/04/19 12:57:37;;;;;;;3.03;1.88;;;18.50;36.00;;;;;;4794257;30;19950;-95
2022/04/19 13:00:05;;;;;;;3.03;1.67;;;18.50;35.60;;;;;;4800333;30;20105;-90
2022/04/19 13:02:31;;;;;;;5.57;1.70;;;18.60;35.90;;;;;;4795121;30;20055;-91
2022/04/19 13:04:57;;;;;;;3.42;1.95;;;18.60;35.80;;;;;;4790556;30;20054;-93
2022/04/19 13:12:58;;;;;;;3.42;2.20;;;18.70;34.40;;;;;;4792873;30;20051;-90
2022/04/19 13:15:24;;;;;;;2.92;2.10;;;18.60;35.40;;;;;;4790625;30;20080;-90
2022/04/19 13:17:49;;;;;;;3.25;2.13;;;18.60;35.70;;;;;;4788866;30;20063;-88
2022/04/19 13:20:15;;;;;;;3.88;1.85;;;18.60;34.50;;;;;;4790284;30;20046;-91
2022/04/19 13:22:40;;;;;;;5.20;2.38;;;18.60;34.40;;;;;;4788027;30;20109;-88
2022/04/19 13:25:07;;;;;;;4.30;2.00;;;18.60;34.80;;;;;;4787705;30;20062;-88
2022/04/19 13:27:35;;;;;;;5.13;2.20;;;18.60;35.90;;;;;;4789070;29;20078;-87
2022/04/19 13:30:02;;;;;;;5.03;2.17;;;18.60;35.10;;;;;;4789081;30;20058;-91
2022/04/19 13:32:27;;;;;;;5.63;2.50;;;18.60;34.60;;;;;;4789645;30;20077;-88
2022/04/19 13:34:53;;;;;;;5.72;2.45;;;18.60;34.80;;;;;;4789105;30;20050;-88
2022/04/19 13:38:23;;;;;;;5.10;2.67;;;18.60;35.20;;;;;;4788799;30;20127;-89
2022/04/19 13:40:05;;;;;;;4.95;2.50;;;18.60;36.40;;;;;;4788970;30;20074;-90
2022/04/19 13:42:31;;;;;;;2.90;2.50;;;18.60;36.00;;;;;;4788956;30;20169;-90
2022/04/19 13:44:56;;;;;;;5.38;2.80;;;18.60;34.80;;;;;;4788355;30;20077;-87
2022/04/19 13:47:22;;;;;;;6.13;2.40;;;18.60;35.50;;;;;;4789649;30;20079;-87